createdAt,value
2023-04-07T00:01:40.743Z,100428.50
2023-04-07T00:04:07.955Z,100426.06
2023-04-07T00:06:35.591Z,100429.69
2023-04-07T00:09:02.573Z,100424.81
2023-04-07T00:11:29.674Z,100420.94
2023-04-07T00:13:56.734Z,100420.50
2023-04-07T00:16:24.412Z,100423.50
2023-04-07T00:18:51.484Z,100429.31
2023-04-07T00:21:18.497Z,100424.88
2023-04-07T00:23:46.523Z,100426.44
2023-04-07T00:26:13.666Z,100428.38
2023-04-07T00:28:43.918Z,100433.66
2023-04-07T00:31:10.969Z,100421.97
2023-04-07T00:33:37.888Z,100421.88
2023-04-07T00:36:05.257Z,100422.97
2023-04-07T00:38:32.185Z,100421.91
2023-04-07T00:41:00.134Z,100426.03
2023-04-07T00:43:27.627Z,100421.06
2023-04-07T00:45:54.963Z,100419.16
2023-04-07T00:48:22.518Z,100418.88
2023-04-07T00:50:49.984Z,100420.16
2023-04-07T00:53:17.221Z,100431.50
2023-04-07T00:55:44.298Z,100429.16
2023-04-07T00:58:11.911Z,100435.84
2023-04-07T01:00:50.599Z,100435.69
2023-04-07T01:03:29.650Z,100428.59
2023-04-07T01:06:01.537Z,100430.97
2023-04-07T01:08:37.689Z,100428.38
2023-04-07T01:11:08.872Z,100426.56
2023-04-07T01:13:39.009Z,100424.00
2023-04-07T01:16:24.383Z,100422.44
2023-04-07T01:18:56.145Z,100421.97
2023-04-07T01:21:29.056Z,100420.69
2023-04-07T01:24:24.691Z,100425.38
2023-04-07T01:26:51.637Z,100424.78
2023-04-07T01:29:27.810Z,100424.13
2023-04-07T01:32:01.564Z,100417.41
2023-04-07T01:34:31.572Z,100421.91
2023-04-07T01:37:01.716Z,100425.84
2023-04-07T01:39:29.060Z,100426.06
2023-04-07T01:41:57.587Z,100426.22
2023-04-07T01:44:26.241Z,100424.34
2023-04-07T01:46:55.799Z,100423.31
2023-04-07T01:49:25.444Z,100427.53
2023-04-07T01:51:52.981Z,100421.97
2023-04-07T01:54:21.455Z,100417.09
2023-04-07T01:56:48.745Z,100420.06
2023-04-07T01:59:16.438Z,100421.78
2023-04-07T02:01:44.012Z,100420.66
2023-04-07T02:04:33.631Z,100422.59
2023-04-07T02:07:06.618Z,100417.63
2023-04-07T02:09:41.491Z,100426.50
2023-04-07T02:12:11.768Z,100428.50
2023-04-07T02:14:43.654Z,100428.00
2023-04-07T02:17:16.671Z,100422.13
2023-04-07T02:19:45.172Z,100426.75
2023-04-07T02:22:13.333Z,100424.72
2023-04-07T02:24:43.621Z,100427.03
2023-04-07T02:27:10.804Z,100435.19
2023-04-07T02:29:37.753Z,100434.69
2023-04-07T02:32:06.588Z,100440.84
2023-04-07T02:34:33.807Z,100433.38
2023-04-07T02:37:01.031Z,100442.75
2023-04-07T02:39:27.999Z,100443.78
2023-04-07T02:41:55.186Z,100450.63
2023-04-07T02:44:22.224Z,100442.69
2023-04-07T02:46:49.241Z,100451.94
2023-04-07T02:49:16.788Z,100450.75
2023-04-07T02:51:43.729Z,100450.03
2023-04-07T02:54:10.677Z,100449.44
2023-04-07T02:56:37.580Z,100452.34
2023-04-07T02:59:04.780Z,100457.41
2023-04-07T03:01:36.624Z,100455.25
2023-04-07T03:04:03.940Z,100457.56
2023-04-07T03:06:31.738Z,100463.19
2023-04-07T03:09:07.862Z,100466.19
2023-04-07T03:11:34.883Z,100463.41
2023-04-07T03:14:01.979Z,100455.88
2023-04-07T03:16:30.921Z,100466.97
2023-04-07T03:19:03.078Z,100465.88
2023-04-07T03:21:34.081Z,100460.72
2023-04-07T03:24:01.312Z,100469.97
2023-04-07T03:26:28.890Z,100467.78
2023-04-07T03:28:56.917Z,100462.69
2023-04-07T03:31:24.861Z,100463.78
2023-04-07T03:33:53.547Z,100470.34
2023-04-07T03:36:22.404Z,100477.16
2023-04-07T03:38:50.413Z,100485.44
2023-04-07T03:41:18.950Z,100489.56
2023-04-07T03:43:47.604Z,100495.44
2023-04-07T03:46:15.693Z,100496.38
2023-04-07T03:48:44.138Z,100491.00
2023-04-07T03:51:11.949Z,100495.81
2023-04-07T03:53:40.292Z,100501.16
2023-04-07T03:56:18.510Z,100493.88
2023-04-07T03:58:49.436Z,100502.56
2023-04-07T04:01:24.879Z,100501.03
2023-04-07T04:03:52.415Z,100510.84
2023-04-07T04:06:25.032Z,100505.03
2023-04-07T04:08:54.430Z,100506.16
2023-04-07T04:11:22.692Z,100508.19
2023-04-07T04:13:57.141Z,100512.41
2023-04-07T04:16:24.234Z,100517.69
2023-04-07T04:18:53.493Z,100518.25
2023-04-07T04:21:21.646Z,100522.09
2023-04-07T04:23:48.688Z,100515.22
2023-04-07T04:26:16.381Z,100521.25
2023-04-07T04:28:45.376Z,100523.47
2023-04-07T04:31:13.767Z,100522.91
2023-04-07T04:33:44.009Z,100526.88
2023-04-07T04:36:11.065Z,100536.16
2023-04-07T04:38:38.961Z,100538.91
2023-04-07T04:41:14.426Z,100537.00
2023-04-07T04:43:42.400Z,100529.38
2023-04-07T04:46:12.014Z,100532.50
2023-04-07T04:48:42.327Z,100536.91
2023-04-07T04:51:09.302Z,100532.31
2023-04-07T04:53:38.046Z,100543.28
2023-04-07T04:56:08.061Z,100540.75
2023-04-07T04:58:55.686Z,100546.50
2023-04-07T05:01:35.621Z,100551.22
2023-04-07T05:04:09.390Z,100552.56
2023-04-07T05:06:38.129Z,100559.38
2023-04-07T05:09:10.400Z,100555.59
2023-04-07T05:11:43.691Z,100564.88
2023-04-07T05:14:11.171Z,100563.00
2023-04-07T05:16:43.102Z,100554.31
2023-04-07T05:19:15.910Z,100558.19
2023-04-07T05:21:43.215Z,100559.59
2023-04-07T05:24:11.192Z,100555.63
2023-04-07T05:26:38.675Z,100557.16
2023-04-07T05:29:06.140Z,100565.84
2023-04-07T05:31:36.087Z,100564.91
2023-04-07T05:34:07.126Z,100582.00
2023-04-07T05:36:39.682Z,100576.56
2023-04-07T05:39:06.621Z,100585.56
2023-04-07T05:41:33.766Z,100582.91
2023-04-07T05:44:02.209Z,100574.69
2023-04-07T05:46:33.342Z,100571.03
2023-04-07T05:49:07.197Z,100575.78
2023-04-07T05:51:49.202Z,100575.97
2023-04-07T05:54:16.719Z,100585.09
2023-04-07T05:56:44.198Z,100582.16
2023-04-07T05:59:11.156Z,100585.84
2023-04-07T06:01:39.433Z,100583.56
2023-04-07T06:04:06.704Z,100580.84
2023-04-07T06:06:33.884Z,100575.66
2023-04-07T06:09:02.010Z,100587.72
2023-04-07T06:11:28.934Z,100592.88
2023-04-07T06:13:56.021Z,100594.56
2023-04-07T06:16:24.138Z,100598.38
2023-04-07T06:18:52.314Z,100597.88
2023-04-07T06:21:19.153Z,100606.72
2023-04-07T06:23:46.190Z,100600.56
2023-04-07T06:26:13.482Z,100608.88
2023-04-07T06:28:40.643Z,100611.28
2023-04-07T06:31:08.965Z,100603.84
2023-04-07T06:33:37.195Z,100605.13
2023-04-07T06:36:04.390Z,100610.69
2023-04-07T06:38:31.911Z,100616.25
2023-04-07T06:40:59.175Z,100608.63
2023-04-07T06:43:26.317Z,100615.28
2023-04-07T06:46:01.770Z,100613.91
2023-04-07T06:48:28.801Z,100611.66
2023-04-07T06:50:56.155Z,100624.19
2023-04-07T06:53:23.216Z,100612.84
2023-04-07T06:55:50.157Z,100615.81
2023-04-07T06:58:17.337Z,100622.19
2023-04-07T07:00:44.314Z,100619.38
2023-04-07T07:03:11.459Z,100617.56
2023-04-07T07:05:38.421Z,100625.81
2023-04-07T07:08:05.540Z,100622.75
2023-04-07T07:10:32.393Z,100635.78
2023-04-07T07:12:59.313Z,100641.31
2023-04-07T07:15:26.246Z,100643.47
2023-04-07T07:17:53.300Z,100632.28
2023-04-07T07:20:20.547Z,100647.78
2023-04-07T07:22:47.513Z,100642.84
2023-04-07T07:40:04.401Z,100650.53
2023-04-07T07:42:32.677Z,100648.91
2023-04-07T07:45:02.815Z,100654.06
2023-04-07T07:47:30.080Z,100662.47
2023-04-07T07:49:57.142Z,100658.22
2023-04-07T07:52:24.325Z,100661.63
2023-04-07T07:54:51.908Z,100652.72
2023-04-07T07:57:18.872Z,100656.31
2023-04-07T07:59:46.772Z,100663.41
2023-04-07T08:02:14.017Z,100657.59
2023-04-07T08:04:40.955Z,100658.69
2023-04-07T08:07:08.053Z,100660.50
2023-04-07T08:09:35.113Z,100668.44
2023-04-07T08:12:02.067Z,100664.63
2023-04-07T08:14:29.439Z,100667.09
2023-04-07T08:16:56.499Z,100660.84
2023-04-07T08:19:24.125Z,100662.03
2023-04-07T08:21:51.068Z,100660.47
2023-04-07T08:24:18.213Z,100661.97
2023-04-07T08:26:46.030Z,100664.69
2023-04-07T08:29:13.004Z,100663.16
2023-04-07T08:31:40.131Z,100672.19
2023-04-07T08:34:07.117Z,100663.16
2023-04-07T08:36:34.047Z,100667.78
2023-04-07T08:39:02.374Z,100668.75
2023-04-07T08:41:42.600Z,100668.59
2023-04-07T08:44:11.071Z,100674.28
2023-04-07T08:46:40.036Z,100677.69
2023-04-07T08:49:13.916Z,100672.06
2023-04-07T08:51:48.506Z,100675.84
2023-04-07T08:54:19.142Z,100672.38
2023-04-07T08:56:46.390Z,100682.84
2023-04-07T08:59:16.343Z,100684.81
2023-04-07T09:01:43.578Z,100682.59
2023-04-07T09:04:11.037Z,100692.34
2023-04-07T09:06:38.427Z,100687.09
2023-04-07T09:09:08.335Z,100691.56
2023-04-07T09:11:37.690Z,100692.44
2023-04-07T09:14:04.929Z,100702.41
2023-04-07T09:16:32.425Z,100692.75
2023-04-07T09:18:59.977Z,100695.25
2023-04-07T09:21:27.521Z,100695.34
2023-04-07T09:23:54.635Z,100708.31
2023-04-07T09:26:23.020Z,100687.53
2023-04-07T09:28:56.802Z,100702.84
2023-04-07T09:31:27.029Z,100708.59
2023-04-07T09:33:54.104Z,100702.88
2023-04-07T09:36:21.118Z,100707.38
2023-04-07T09:38:48.247Z,100706.28
2023-04-07T09:41:17.052Z,100702.16
2023-04-07T09:43:46.819Z,100703.84
2023-04-07T09:46:19.327Z,100705.34
2023-04-07T09:48:47.061Z,100715.09
2023-04-07T09:51:16.064Z,100706.47
2023-04-07T09:53:49.141Z,100707.94
2023-04-07T09:56:18.446Z,100709.00
2023-04-07T09:58:47.342Z,100721.63
2023-04-07T10:01:19.244Z,100712.22
2023-04-07T10:03:51.483Z,100712.78
2023-04-07T10:06:20.787Z,100711.91
2023-04-07T10:08:47.961Z,100711.97
2023-04-07T10:11:16.084Z,100712.06
2023-04-07T10:13:43.240Z,100712.84
2023-04-07T10:16:10.742Z,100716.13
2023-04-07T10:18:39.888Z,100717.69
2023-04-07T10:21:08.222Z,100720.09
2023-04-07T10:23:49.821Z,100725.47
2023-04-07T10:26:26.489Z,100719.59
2023-04-07T10:28:59.046Z,100723.19
2023-04-07T10:31:26.981Z,100728.88
2023-04-07T10:33:55.993Z,100721.22
2023-04-07T10:36:23.367Z,100722.81
2023-04-07T10:39:08.626Z,100713.56
2023-04-07T10:41:40.503Z,100716.75
2023-04-07T10:44:09.957Z,100718.47
2023-04-07T10:47:03.481Z,100722.97
2023-04-07T10:49:30.615Z,100722.13
2023-04-07T10:52:29.666Z,100725.81
2023-04-07T10:55:34.625Z,100718.59
2023-04-07T10:58:17.900Z,100717.03
2023-04-07T11:01:00.718Z,100717.47
2023-04-07T11:03:29.958Z,100708.63
2023-04-07T11:06:10.747Z,100715.88
2023-04-07T11:08:40.000Z,100713.72
2023-04-07T11:11:11.359Z,100713.47
2023-04-07T11:13:42.534Z,100711.81
2023-04-07T11:16:10.581Z,100706.66
2023-04-07T11:18:38.437Z,100711.66
2023-04-07T11:21:07.025Z,100711.56
2023-04-07T11:23:41.619Z,100719.03
2023-04-07T11:26:11.506Z,100721.72
2023-04-07T11:28:54.970Z,100718.53
2023-04-07T11:31:23.621Z,100717.97
2023-04-07T11:33:55.434Z,100715.09
2023-04-07T11:36:33.312Z,100725.03
2023-04-07T11:39:01.637Z,100716.91
2023-04-07T11:41:33.336Z,100721.78
2023-04-07T11:44:08.502Z,100706.84
2023-04-07T11:46:36.644Z,100713.44
2023-04-07T11:49:12.797Z,100711.66
2023-04-07T11:51:40.632Z,100708.81
2023-04-07T11:54:07.984Z,100713.66
2023-04-07T11:56:46.258Z,100711.00
2023-04-07T11:59:21.236Z,100717.00
2023-04-07T12:01:50.993Z,100710.41
2023-04-07T12:04:18.872Z,100717.59
2023-04-07T12:06:47.757Z,100721.19
2023-04-07T12:09:32.493Z,100711.47
2023-04-07T12:11:59.761Z,100713.59
2023-04-07T12:14:27.962Z,100718.84
2023-04-07T12:16:58.389Z,100714.78
2023-04-07T12:19:30.635Z,100716.16
2023-04-07T12:21:57.704Z,100711.00
2023-04-07T12:24:24.861Z,100707.63
2023-04-07T12:26:51.833Z,100713.22
2023-04-07T12:29:20.330Z,100712.78
2023-04-07T12:31:50.649Z,100702.97
2023-04-07T12:34:18.426Z,100706.38
2023-04-07T12:36:45.746Z,100704.50
2023-04-07T12:39:12.826Z,100703.59
2023-04-07T12:41:40.186Z,100708.16
2023-04-07T12:44:07.279Z,100717.19
2023-04-07T12:46:34.470Z,100726.16
2023-04-07T12:49:01.433Z,100718.84
2023-04-07T12:51:29.119Z,100724.97
2023-04-07T12:53:56.115Z,100730.34
2023-04-07T12:56:23.133Z,100725.19
2023-04-07T12:58:50.028Z,100732.00
2023-04-07T13:01:17.220Z,100740.13
2023-04-07T13:03:44.643Z,100741.91
2023-04-07T13:06:11.915Z,100752.00
2023-04-07T13:08:40.552Z,100744.03
2023-04-07T13:11:07.705Z,100746.88
2023-04-07T13:13:34.796Z,100749.16
2023-04-07T13:16:01.971Z,100753.66
2023-04-07T13:18:29.040Z,100747.31
2023-04-07T13:21:19.857Z,100759.13
2023-04-07T13:23:44.099Z,100757.84
2023-04-07T13:26:11.684Z,100753.28
2023-04-07T13:28:39.170Z,100755.56
2023-04-07T13:31:06.578Z,100752.50
2023-04-07T13:33:34.446Z,100760.38
2023-04-07T13:36:01.425Z,100755.72
2023-04-07T13:38:28.410Z,100750.53
2023-04-07T13:40:55.258Z,100760.44
2023-04-07T13:43:22.153Z,100760.56
2023-04-07T13:45:49.555Z,100765.13
2023-04-07T13:48:16.633Z,100768.94
2023-04-07T13:50:43.539Z,100762.38
2023-04-07T13:53:10.385Z,100759.50
2023-04-07T13:55:37.258Z,100761.59
2023-04-07T13:58:04.312Z,100755.94
2023-04-07T14:00:31.460Z,100760.66
2023-04-07T14:02:58.506Z,100763.50
2023-04-07T14:05:25.601Z,100772.41
2023-04-07T14:07:52.643Z,100767.47
2023-04-07T14:10:19.497Z,100768.75
2023-04-07T14:12:46.687Z,100770.50
2023-04-07T14:15:13.597Z,100776.56
2023-04-07T14:17:40.590Z,100778.31
2023-04-07T14:20:08.195Z,100774.34
2023-04-07T14:22:35.073Z,100775.56
2023-04-07T14:25:01.926Z,100781.38
2023-04-07T14:27:31.344Z,100786.28
2023-04-07T14:29:59.670Z,100785.34
2023-04-07T14:32:29.798Z,100800.38
2023-04-07T14:34:59.182Z,100806.63
2023-04-07T14:37:26.655Z,100797.91
2023-04-07T14:40:02.523Z,100800.09
2023-04-07T14:42:30.946Z,100798.44
2023-04-07T14:44:59.727Z,100802.91
2023-04-07T14:47:27.640Z,100804.13
2023-04-07T14:49:55.580Z,100801.31
2023-04-07T14:52:22.556Z,100795.16
2023-04-07T14:54:49.447Z,100806.34
2023-04-07T14:57:17.010Z,100809.47
2023-04-07T14:59:44.197Z,100805.69
2023-04-07T15:02:11.445Z,100813.25
2023-04-07T15:04:38.708Z,100817.34
2023-04-07T15:07:06.477Z,100837.13
2023-04-07T15:09:33.343Z,100829.88
2023-04-07T15:12:01.078Z,100833.25
2023-04-07T15:14:28.035Z,100823.38
2023-04-07T15:16:54.954Z,100821.63
2023-04-07T15:19:21.921Z,100821.44
2023-04-07T15:21:48.765Z,100832.53
2023-04-07T15:24:16.489Z,100831.81
2023-04-07T15:26:43.730Z,100824.22
2023-04-07T15:29:10.782Z,100822.31
2023-04-07T15:31:37.795Z,100827.91
2023-04-07T15:34:05.474Z,100827.22
2023-04-07T15:36:32.456Z,100828.25
2023-04-07T15:39:07.042Z,100832.03
2023-04-07T15:41:34.305Z,100832.28
2023-04-07T15:44:01.484Z,100832.53
2023-04-07T15:46:28.831Z,100849.91
2023-04-07T15:48:55.721Z,100852.34
2023-04-07T15:51:23.192Z,100843.13
2023-04-07T15:53:50.406Z,100852.22
2023-04-07T15:56:17.510Z,100844.84
2023-04-07T15:58:46.059Z,100843.63
2023-04-07T16:01:13.194Z,100857.16
2023-04-07T16:03:40.322Z,100850.00
2023-04-07T16:06:07.282Z,100848.00
2023-04-07T16:08:34.258Z,100853.81
2023-04-07T16:11:01.219Z,100854.25
2023-04-07T16:13:28.129Z,100856.69
2023-04-07T16:15:58.348Z,100858.09
2023-04-07T16:18:25.386Z,100862.94
2023-04-07T16:20:52.301Z,100863.47
2023-04-07T16:23:19.149Z,100872.50
2023-04-07T16:25:46.076Z,100877.38
2023-04-07T16:28:13.061Z,100873.44
2023-04-07T16:30:40.198Z,100879.84
2023-04-07T16:33:07.173Z,100878.81
2023-04-07T16:35:34.429Z,100887.88
2023-04-07T16:38:04.760Z,100891.81
2023-04-07T16:40:32.641Z,100887.72
2023-04-07T16:42:59.522Z,100897.25
2023-04-07T16:45:26.615Z,100891.81
2023-04-07T16:47:53.555Z,100900.16
2023-04-07T16:50:20.637Z,100896.38
2023-04-07T16:52:48.005Z,100906.75
2023-04-07T16:55:15.147Z,100902.91
2023-04-07T16:57:42.089Z,100915.22
2023-04-07T17:00:09.476Z,100906.69
2023-04-07T17:02:36.488Z,100915.81
2023-04-07T17:05:03.874Z,100926.59
2023-04-07T17:07:30.836Z,100926.00
2023-04-07T17:09:57.918Z,100925.47
2023-04-07T17:12:24.886Z,100931.19
2023-04-07T17:14:51.886Z,100939.41
2023-04-07T17:17:19.702Z,100928.84
2023-04-07T17:19:47.464Z,100940.47
2023-04-07T17:22:14.390Z,100948.72
2023-04-07T17:24:41.434Z,100940.88
2023-04-07T17:27:08.600Z,100940.00
2023-04-07T17:29:35.633Z,100946.72
2023-04-07T17:32:02.862Z,100950.66
2023-04-07T17:34:29.785Z,100961.66
2023-04-07T17:36:56.663Z,100950.34
2023-04-07T17:39:23.544Z,100955.41
2023-04-07T17:41:50.755Z,100963.63
2023-04-07T17:44:18.008Z,100968.47
2023-04-07T17:46:45.796Z,100972.81
2023-04-07T17:49:12.780Z,100974.34
2023-04-07T17:51:39.767Z,100973.81
2023-04-07T17:54:07.342Z,100973.63
2023-04-07T17:56:34.325Z,100972.34
2023-04-07T17:59:01.571Z,100979.06
2023-04-07T18:01:28.528Z,100982.25
2023-04-07T18:03:55.704Z,100978.78
2023-04-07T18:06:23.556Z,100986.09
2023-04-07T18:08:51.770Z,100985.41
2023-04-07T18:11:19.200Z,100996.72
2023-04-07T18:13:46.019Z,100994.22
2023-04-07T18:16:18.685Z,100998.50
2023-04-07T18:18:47.850Z,101002.22
2023-04-07T18:21:14.804Z,101015.94
2023-04-07T18:23:41.767Z,101022.13
2023-04-07T18:26:08.784Z,101015.03
2023-04-07T18:28:37.256Z,101021.72
2023-04-07T18:31:07.030Z,101022.44
2023-04-07T18:33:35.422Z,101024.59
2023-04-07T18:36:07.450Z,101027.19
2023-04-07T18:38:36.086Z,101021.34
2023-04-07T18:41:03.851Z,101022.22
2023-04-07T18:43:31.612Z,101024.19
2023-04-07T18:45:58.800Z,101016.78
2023-04-07T18:48:26.419Z,101021.34
2023-04-07T18:50:55.008Z,101024.09
2023-04-07T18:53:23.827Z,101021.53
2023-04-07T18:55:51.333Z,101024.97
2023-04-07T18:58:19.445Z,101016.31
2023-04-07T19:00:49.702Z,101024.91
2023-04-07T19:03:17.101Z,101025.16
2023-04-07T19:05:47.620Z,101030.06
2023-04-07T19:08:16.072Z,101023.28
2023-04-07T19:10:43.922Z,101028.94
2023-04-07T19:13:11.198Z,101025.88
2023-04-07T19:15:39.442Z,101027.13
2023-04-07T19:18:08.314Z,101027.03
2023-04-07T19:20:35.542Z,101026.19
2023-04-07T19:23:02.763Z,101020.81
2023-04-07T19:25:31.467Z,101029.47
2023-04-07T19:27:59.183Z,101029.78
2023-04-07T19:41:57.706Z,101031.28
2023-04-07T19:44:26.465Z,101038.78
2023-04-07T19:46:53.625Z,101030.16
2023-04-07T19:49:20.534Z,101044.69
2023-04-07T19:51:48.200Z,101043.56
2023-04-07T19:54:15.213Z,101030.22
2023-04-07T19:56:42.199Z,101041.81
2023-04-07T19:59:09.256Z,101039.84
2023-04-07T20:01:36.357Z,101046.72
2023-04-07T20:04:03.922Z,101045.06
2023-04-07T20:06:33.456Z,101041.41
2023-04-07T20:09:00.998Z,101032.16
2023-04-07T20:11:27.992Z,101038.25
2023-04-07T20:13:56.026Z,101037.25
2023-04-07T20:16:23.030Z,101040.19
2023-04-07T20:18:51.685Z,101038.13
2023-04-07T20:21:18.646Z,101038.97
2023-04-07T20:23:46.706Z,101044.50
2023-04-07T20:26:13.689Z,101039.25
2023-04-07T20:28:41.220Z,101036.00
2023-04-07T20:31:08.387Z,101038.53
2023-04-07T20:33:35.732Z,101042.38
2023-04-07T20:36:02.773Z,101042.41
2023-04-07T20:38:30.462Z,101041.66
2023-04-07T20:40:57.611Z,101043.00
2023-04-07T20:43:24.650Z,101035.53
2023-04-07T20:45:52.366Z,101037.50
2023-04-07T20:48:25.823Z,101043.44
2023-04-07T20:50:53.129Z,101037.84
2023-04-07T20:53:20.462Z,101046.13
2023-04-07T20:55:47.650Z,101034.59
2023-04-07T20:58:14.607Z,101038.31
2023-04-07T21:00:41.538Z,101042.47
2023-04-07T21:03:08.625Z,101039.84
2023-04-07T21:05:35.744Z,101040.59
2023-04-07T21:08:02.692Z,101049.38
2023-04-07T21:10:29.777Z,101036.81
2023-04-07T21:12:56.748Z,101041.81
2023-04-07T21:15:23.714Z,101040.28
2023-04-07T21:17:50.729Z,101037.91
2023-04-07T21:20:17.881Z,101048.00
2023-04-07T21:22:44.978Z,101046.53
2023-04-07T21:25:13.103Z,101049.47
2023-04-07T21:27:40.153Z,101044.13
2023-04-07T21:30:08.092Z,101049.22
2023-04-07T21:32:35.226Z,101046.03
2023-04-07T21:35:02.237Z,101051.09
2023-04-07T21:37:29.363Z,101052.31
2023-04-07T21:39:56.907Z,101061.16
2023-04-07T21:42:23.757Z,101067.47
2023-04-07T21:44:50.834Z,101054.28
2023-04-07T21:47:17.741Z,101060.34
2023-04-07T21:49:44.775Z,101061.88
2023-04-07T21:52:11.801Z,101054.72
2023-04-07T21:54:38.850Z,101070.91
2023-04-07T21:57:05.837Z,101054.72
2023-04-07T21:59:32.873Z,101073.38
2023-04-07T22:02:00.808Z,101069.91
2023-04-07T22:04:28.939Z,101066.97
2023-04-07T22:06:56.651Z,101077.03
2023-04-07T22:09:23.798Z,101066.97
2023-04-07T22:11:52.199Z,101067.34
2023-04-07T22:14:25.285Z,101067.25
2023-04-07T22:16:52.871Z,101070.16
2023-04-07T22:19:20.651Z,101077.78
2023-04-07T22:21:49.557Z,101073.78
2023-04-07T22:24:16.619Z,101070.84
2023-04-07T22:26:43.686Z,101070.19
2023-04-07T22:29:12.098Z,101073.44
2023-04-07T22:31:39.022Z,101066.28
2023-04-07T22:34:06.470Z,101062.00
2023-04-07T22:36:34.433Z,101068.56
2023-04-07T22:39:01.575Z,101068.13
2023-04-07T22:41:28.847Z,101068.91
2023-04-07T22:43:55.946Z,101071.84
2023-04-07T22:46:22.880Z,101072.72
2023-04-07T22:48:50.175Z,101071.47
2023-04-07T22:51:17.996Z,101077.16
2023-04-07T22:53:45.861Z,101076.13
2023-04-07T22:56:13.051Z,101076.88
2023-04-07T22:58:39.957Z,101076.13
2023-04-07T23:01:07.197Z,101081.94
2023-04-07T23:03:34.307Z,101075.34
2023-04-07T23:06:02.577Z,101078.44
2023-04-07T23:08:29.565Z,101068.13
2023-04-07T23:10:56.593Z,101072.75
2023-04-07T23:13:23.405Z,101068.31
2023-04-07T23:15:50.471Z,101060.78
2023-04-07T23:18:17.450Z,101067.25
2023-04-07T23:20:54.898Z,101072.97
2023-04-07T23:23:22.528Z,101068.66
2023-04-07T23:25:49.580Z,101065.22
2023-04-07T23:28:16.556Z,101061.13
2023-04-07T23:30:43.659Z,101065.22
2023-04-07T23:33:10.557Z,101065.63
2023-04-07T23:35:37.657Z,101067.50
2023-04-07T23:38:04.950Z,101071.22
2023-04-07T23:40:31.953Z,101061.81
2023-04-07T23:42:58.780Z,101066.97
2023-04-07T23:45:25.752Z,101053.81
2023-04-07T23:47:52.809Z,101058.88
2023-04-07T23:50:20.211Z,101063.75
2023-04-07T23:52:47.175Z,101057.06
2023-04-07T23:55:14.091Z,101059.91
2023-04-07T23:57:41.396Z,101056.78
